Time;durP1;ratioP1;P1;durP2;ratioP2;P2;SDS_P1;SDS_P2;PMS_P1;PMS_P2;Temp;Humidity;BMP_temperature;BMP_pressure;BME280_temperature;BME280_humidity;BME280_pressure;Samples;Min_cycle;Max_cycle;Signal;HPM_P1;HPM_P2
2023/05/08 00:01:47;;;;;;;8.43;6.93;;;;;;;8.10;81.80;102140.34;5049973;28;20561;-75
2023/05/08 00:04:16;;;;;;;10.10;6.13;;;;;;;8.14;81.21;102139.03;5029847;28;20625;-75
2023/05/08 00:06:45;;;;;;;6.68;5.85;;;;;;;8.18;80.96;102131.50;5048707;28;20268;-75
2023/05/08 00:09:15;;;;;;;7.75;5.93;;;;;;;8.11;81.43;102136.66;5055445;28;20195;-73
2023/05/08 00:11:44;;;;;;;6.57;5.30;;;;;;;8.07;81.41;102129.88;5058330;28;20690;-73
2023/05/08 00:14:15;;;;;;;9.07;5.85;;;;;;;8.01;81.57;102125.09;5054734;28;20219;-74
2023/05/08 00:16:44;;;;;;;6.30;5.72;;;;;;;8.03;81.43;102127.66;5053767;28;20434;-75
2023/05/08 00:19:13;;;;;;;6.60;5.68;;;;;;;8.05;81.13;102131.03;5048889;28;20269;-74
2023/05/08 00:21:42;;;;;;;6.38;5.40;;;;;;;7.97;81.50;102129.13;5028443;28;20213;-76
2023/05/08 00:24:11;;;;;;;6.82;5.50;;;;;;;7.97;81.37;102139.06;5044717;28;20213;-75
2023/05/08 00:26:43;;;;;;;7.03;5.57;;;;;;;7.92;81.89;102142.22;5045191;28;20210;-75
2023/05/08 00:29:12;;;;;;;6.72;5.32;;;;;;;7.88;82.06;102138.13;5030941;28;20198;-75
2023/05/08 00:31:42;;;;;;;6.65;5.65;;;;;;;7.86;82.28;102142.81;5046181;28;20195;-74
2023/05/08 00:34:12;;;;;;;7.45;5.97;;;;;;;7.83;82.50;102144.00;5030414;28;20225;-74
2023/05/08 00:36:41;;;;;;;8.68;7.05;;;;;;;7.80;82.96;102138.88;5051924;28;20217;-74
2023/05/08 00:39:10;;;;;;;8.93;6.32;;;;;;;7.74;83.20;102144.06;5053665;28;20214;-75
2023/05/08 00:41:39;;;;;;;7.07;6.45;;;;;;;7.82;82.92;102150.38;5051444;28;20227;-74
2023/05/08 00:44:08;;;;;;;7.80;6.85;;;;;;;7.75;83.50;102141.19;5035943;28;20212;-73
2023/05/08 00:46:38;;;;;;;10.75;7.90;;;;;;;7.67;83.75;102151.06;5051299;28;20221;-73
2023/05/08 00:49:12;;;;;;;6.25;5.65;;;;;;;7.74;83.43;102154.84;5046567;28;20195;-73
2023/05/08 00:51:42;;;;;;;7.32;6.20;;;;;;;7.66;83.42;102158.28;5044231;28;20301;-73
2023/05/08 00:54:12;;;;;;;7.30;6.60;;;;;;;7.66;82.96;102160.97;5047771;28;20219;-75
2023/05/08 00:56:41;;;;;;;7.35;6.03;;;;;;;7.57;83.69;102161.03;5059822;28;20528;-74
2023/05/08 00:59:13;;;;;;;6.90;6.22;;;;;;;7.54;83.69;102158.66;5046437;28;20199;-74
2023/05/08 01:01:46;;;;;;;9.23;6.47;;;;;;;7.62;82.96;102159.59;5045876;28;20684;-74
2023/05/08 01:04:20;;;;;;;6.28;5.68;;;;;;;7.56;82.99;102162.03;5031608;28;20217;-74
2023/05/08 01:06:50;;;;;;;7.82;6.22;;;;;;;7.55;83.26;102166.56;5037448;28;20286;-76
2023/05/08 01:09:19;;;;;;;8.35;7.07;;;;;;;7.55;82.74;102160.38;5053454;28;20196;-73
2023/05/08 01:11:54;;;;;;;9.27;6.85;;;;;;;7.51;83.04;102165.19;5049736;28;20271;-72
2023/05/08 01:14:32;;;;;;;7.50;6.70;;;;;;;7.50;82.85;102162.66;5025067;28;20219;-72
2023/05/08 01:17:09;;;;;;;7.25;6.10;;;;;;;7.53;82.95;102163.22;5034059;28;20212;-73
2023/05/08 01:20:01;;;;;;;7.43;6.38;;;;;;;7.41;83.16;102165.25;5026582;28;20197;-73
2023/05/08 01:22:54;;;;;;;10.88;6.60;;;;;;;7.20;84.32;102167.38;5026859;28;20223;-74
2023/05/08 01:25:52;;;;;;;7.53;6.70;;;;;;;7.19;84.76;102160.28;5029880;28;20665;-73
2023/05/08 01:29:00;;;;;;;6.68;5.93;;;;;;;7.12;85.25;102161.84;5047144;28;20212;-74
2023/05/08 01:31:42;;;;;;;8.18;6.90;;;;;;;7.23;84.75;102166.22;5044426;28;20200;-74
2023/05/08 01:34:21;;;;;;;6.90;6.20;;;;;;;7.27;84.01;102168.44;5021429;28;20726;-74
2023/05/08 01:36:54;;;;;;;7.43;6.07;;;;;;;7.20;84.55;102167.38;5030289;28;20251;-76
2023/05/08 01:39:40;;;;;;;6.90;6.20;;;;;;;7.27;84.10;102167.59;5052375;28;20189;-74
2023/05/08 01:42:14;;;;;;;7.78;6.63;;;;;;;7.14;84.64;102170.66;5025126;28;20216;-75
2023/05/08 01:44:49;;;;;;;11.68;7.45;;;;;;;7.15;84.63;102164.28;5052118;28;20224;-73
2023/05/08 01:47:20;;;;;;;8.80;7.90;;;;;;;7.15;84.71;102164.28;5030788;28;20253;-71
2023/05/08 01:50:00;;;;;;;6.05;5.45;;;;;;;7.10;84.77;102171.94;5049656;28;20211;-74
2023/05/08 01:52:33;;;;;;;7.65;6.43;;;;;;;7.06;85.24;102173.25;5045627;28;20214;-73
2023/05/08 01:55:05;;;;;;;7.53;6.78;;;;;;;7.07;85.22;102177.59;5048057;28;20225;-74
2023/05/08 01:57:41;;;;;;;7.38;6.50;;;;;;;7.08;85.13;102173.06;5034541;28;20215;-74
2023/05/08 02:00:12;;;;;;;8.18;7.28;;;;;;;7.04;85.31;102167.16;5031452;28;20200;-74
2023/05/08 02:02:43;;;;;;;6.97;6.38;;;;;;;7.03;85.48;102173.53;5052317;28;20215;-73
2023/05/08 02:05:16;;;;;;;8.48;7.70;;;;;;;6.96;85.06;102175.97;5031271;28;20311;-74
2023/05/08 02:07:49;;;;;;;10.30;7.82;;;;;;;6.92;85.70;102173.72;5039690;28;20431;-76
2023/05/08 02:10:21;;;;;;;12.23;7.60;;;;;;;6.82;86.43;102173.75;5050851;28;20191;-73
2023/05/08 02:12:50;;;;;;;8.85;7.22;;;;;;;6.83;86.46;102179.97;5041412;28;20212;-74
2023/05/08 02:15:21;;;;;;;8.82;6.72;;;;;;;6.88;86.12;102175.84;5050124;28;20768;-72
2023/05/08 02:17:52;;;;;;;6.85;6.18;;;;;;;6.70;86.84;102171.38;5048837;28;20188;-74
2023/05/08 02:20:23;;;;;;;11.93;7.65;;;;;;;6.75;86.59;102169.09;5048417;28;20194;-75
2023/05/08 02:22:52;;;;;;;8.05;7.25;;;;;;;6.73;86.44;102174.63;5046214;28;20581;-76
2023/05/08 02:25:22;;;;;;;8.02;7.22;;;;;;;6.85;86.06;102176.16;5047631;28;20622;-74
2023/05/08 02:27:54;;;;;;;7.22;6.55;;;;;;;6.83;85.82;102174.59;5023339;28;20200;-72
2023/05/08 02:30:25;;;;;;;10.75;7.60;;;;;;;6.76;85.88;102163.56;5048218;28;20190;-72
2023/05/08 02:32:56;;;;;;;7.72;7.03;;;;;;;6.67;86.49;102174.38;5028522;28;20290;-74
2023/05/08 02:35:32;;;;;;;7.32;6.38;;;;;;;6.61;86.79;102169.56;5044099;28;20213;-74
2023/05/08 02:38:02;;;;;;;7.38;6.57;;;;;;;6.63;86.62;102172.97;5025701;28;20202;-73
2023/05/08 02:40:32;;;;;;;7.25;6.45;;;;;;;6.62;86.74;102158.66;5048607;28;20196;-73
2023/05/08 02:43:01;;;;;;;9.05;7.97;;;;;;;6.58;87.06;102162.66;5021148;28;20570;-76
2023/05/08 02:45:39;;;;;;;9.13;7.28;;;;;;;6.57;86.81;102160.94;5050352;28;20216;-73
2023/05/08 02:48:14;;;;;;;9.27;6.90;;;;;;;6.59;86.66;102167.00;5051934;28;20580;-74
2023/05/08 02:50:54;;;;;;;9.82;7.82;;;;;;;6.56;86.70;102161.94;5032641;28;20202;-74
2023/05/08 02:53:31;;;;;;;7.63;6.82;;;;;;;6.50;86.66;102163.34;5044614;28;20211;-72
2023/05/08 02:56:08;;;;;;;9.20;8.05;;;;;;;6.40;87.42;102172.44;5027901;28;20210;-74
2023/05/08 02:58:44;;;;;;;14.98;7.90;;;;;;;6.39;87.45;102165.38;5037151;28;20201;-73
2023/05/08 03:01:21;;;;;;;8.70;7.35;;;;;;;6.41;87.48;102166.06;5036734;28;20210;-75
2023/05/08 03:03:59;;;;;;;7.47;6.78;;;;;;;6.46;87.03;102166.47;5048823;28;20709;-73
2023/05/08 03:06:37;;;;;;;10.73;7.85;;;;;;;6.42;87.06;102171.31;5049886;28;20204;-72
2023/05/08 03:09:12;;;;;;;8.80;7.78;;;;;;;6.44;87.29;102165.75;5049760;28;20200;-73
2023/05/08 03:11:43;;;;;;;11.32;8.25;;;;;;;6.29;87.32;102165.41;5033408;28;20195;-74
2023/05/08 03:14:19;;;;;;;9.43;7.47;;;;;;;6.36;87.65;102165.66;5033041;28;20219;-73
2023/05/08 03:16:50;;;;;;;10.75;9.30;;;;;;;6.47;86.53;102171.72;5048963;28;20271;-74
2023/05/08 03:19:24;;;;;;;10.52;8.18;;;;;;;6.31;87.17;102168.78;5032513;28;20210;-73
2023/05/08 03:21:56;;;;;;;10.45;7.78;;;;;;;6.32;87.39;102170.47;5052565;28;20230;-73
2023/05/08 03:24:26;;;;;;;9.90;8.90;;;;;;;6.44;87.01;102169.31;5028252;28;20614;-73
2023/05/08 03:26:58;;;;;;;10.65;7.88;;;;;;;6.38;87.26;102169.91;5054995;28;20234;-73
2023/05/08 03:29:28;;;;;;;9.00;7.55;;;;;;;6.45;86.77;102170.16;5048748;28;20258;-73
2023/05/08 03:32:01;;;;;;;8.85;7.35;;;;;;;6.38;86.63;102172.59;5037278;28;20284;-74
2023/05/08 03:34:31;;;;;;;9.30;8.32;;;;;;;6.42;86.83;102171.31;5046053;28;20229;-74
2023/05/08 03:37:01;;;;;;;8.77;7.80;;;;;;;6.52;86.26;102168.59;5052441;28;20194;-74
2023/05/08 03:39:30;;;;;;;9.18;8.35;;;;;;;6.50;86.59;102174.13;5036966;28;20700;-71
2023/05/08 03:42:00;;;;;;;13.05;8.88;;;;;;;6.63;86.39;102172.97;5036747;28;20234;-73
2023/05/08 03:44:32;;;;;;;9.07;8.18;;;;;;;6.93;84.91;102175.41;5045526;28;20209;-74
2023/05/08 03:47:02;;;;;;;9.82;7.80;;;;;;;7.05;84.01;102174.22;5057379;28;20198;-73
2023/05/08 03:49:33;;;;;;;10.80;9.52;;;;;;;7.64;83.02;102176.47;5042714;28;20201;-73
2023/05/08 03:52:04;;;;;;;8.52;7.53;;;;;;;8.36;77.70;102177.34;5046165;28;20192;-74
2023/05/08 03:54:33;;;;;;;9.25;8.30;;;;;;;8.92;75.89;102179.56;5049904;28;20217;-74
2023/05/08 03:57:02;;;;;;;10.82;8.80;;;;;;;10.04;70.37;102181.78;5042509;28;20194;-74
2023/05/08 03:59:42;;;;;;;9.48;7.82;;;;;;;10.88;66.34;102172.47;5024206;28;20697;-74
2023/05/08 04:02:25;;;;;;;9.32;7.53;;;;;;;11.41;63.60;102185.31;5024210;28;20303;-74
2023/05/08 04:05:02;;;;;;;9.40;6.70;;;;;;;11.56;62.53;102188.97;5051599;28;20240;-73
2023/05/08 04:07:42;;;;;;;8.68;6.80;;;;;;;12.51;59.79;102190.34;5034705;28;20671;-74
2023/05/08 04:10:18;;;;;;;8.98;7.18;;;;;;;13.13;57.46;102186.53;5036556;28;20614;-73
2023/05/08 04:12:55;;;;;;;8.80;7.10;;;;;;;12.82;57.54;102192.09;5051508;28;20273;-75
2023/05/08 04:15:27;;;;;;;9.90;7.50;;;;;;;12.81;56.57;102188.53;5033134;28;20221;-75
2023/05/08 04:18:03;;;;;;;11.00;7.20;;;;;;;13.10;56.65;102190.44;5035577;28;20195;-74
2023/05/08 04:20:33;;;;;;;12.98;7.80;;;;;;;13.42;55.51;102190.06;5030966;28;20417;-75
2023/05/08 04:23:05;;;;;;;8.17;6.00;;;;;;;12.92;56.61;102192.69;5053476;28;20301;-73
2023/05/08 04:25:38;;;;;;;8.23;6.20;;;;;;;13.03;56.61;102190.34;5033036;28;20836;-73
2023/05/08 04:28:08;;;;;;;7.40;6.70;;;;;;;12.44;56.91;102189.38;5048279;28;20207;-73
2023/05/08 04:30:39;;;;;;;9.60;8.50;;;;;;;13.04;55.46;102196.63;5024619;28;20473;-73
2023/05/08 04:33:09;;;;;;;8.57;7.07;;;;;;;12.64;56.21;102197.88;5049368;28;20421;-74
2023/05/08 04:35:38;;;;;;;9.20;7.93;;;;;;;13.42;54.17;102200.94;5055514;28;20475;-73
2023/05/08 04:38:09;;;;;;;7.47;6.77;;;;;;;12.83;55.30;102199.25;5043863;28;20434;-75
2023/05/08 04:40:38;;;;;;;8.05;6.50;;;;;;;12.94;55.03;102198.75;5053845;28;20470;-72
2023/05/08 04:43:09;;;;;;;6.77;6.03;;;;;;;13.10;54.63;102212.19;5033465;28;20293;-74
2023/05/08 04:45:38;;;;;;;6.80;6.10;;;;;;;12.93;55.21;102205.22;5036652;28;20442;-74
2023/05/08 04:48:07;;;;;;;10.33;5.50;;;;;;;13.61;53.30;102204.09;5026735;28;20476;-76
2023/05/08 04:50:36;;;;;;;9.67;6.70;;;;;;;14.15;51.27;102212.69;5054703;28;20408;-74
2023/05/08 04:53:06;;;;;;;6.77;6.10;;;;;;;13.70;52.52;102219.31;5029001;28;20505;-75
2023/05/08 04:55:37;;;;;;;6.80;6.07;;;;;;;14.39;50.38;102225.09;5034934;28;20488;-73
2023/05/08 04:58:06;;;;;;;6.50;5.47;;;;;;;13.60;51.92;102230.47;5029820;28;20426;-73
2023/05/08 05:00:35;;;;;;;7.10;6.40;;;;;;;13.45;52.49;102230.50;5034916;28;20416;-73
2023/05/08 05:03:05;;;;;;;6.00;5.20;;;;;;;13.12;52.85;102231.06;5029769;28;20501;-74
2023/05/08 05:05:36;;;;;;;6.27;5.30;;;;;;;13.59;52.30;102227.94;5031622;28;20459;-71
2023/05/08 05:08:07;;;;;;;8.93;6.83;;;;;;;13.55;51.35;102237.53;5030359;28;20421;-73
2023/05/08 05:10:38;;;;;;;6.00;5.40;;;;;;;13.01;53.06;102235.03;5032084;28;20442;-73
2023/05/08 05:13:08;;;;;;;8.33;6.00;;;;;;;13.85;51.60;102230.97;5027022;28;20411;-72
2023/05/08 05:15:37;;;;;;;7.20;6.00;;;;;;;13.99;51.42;102234.72;5030875;28;20454;-73
2023/05/08 05:18:06;;;;;;;7.03;6.17;;;;;;;13.61;51.07;102239.47;5028631;28;20419;-73
2023/05/08 05:20:36;;;;;;;7.00;5.60;;;;;;;12.39;54.11;102242.56;5034443;28;20449;-75
2023/05/08 05:23:05;;;;;;;7.37;5.67;;;;;;;10.81;58.91;102248.13;5028169;28;20479;-77
2023/05/08 05:25:36;;;;;;;7.67;6.73;;;;;;;9.75;63.51;102249.00;5049608;28;20466;-75
2023/05/08 05:28:06;;;;;;;7.70;5.80;;;;;;;9.25;66.18;102250.78;5032998;28;20441;-75
2023/05/08 05:30:35;;;;;;;10.05;6.25;;;;;;;8.92;67.66;102247.06;5038924;28;20200;-75
2023/05/08 05:33:04;;;;;;;6.30;5.70;;;;;;;8.85;68.31;102252.25;5036607;28;20201;-76
2023/05/08 05:35:34;;;;;;;11.45;6.13;;;;;;;8.90;68.34;102255.31;5039830;28;20602;-76
2023/05/08 05:38:04;;;;;;;8.18;7.07;;;;;;;8.82;68.81;102252.56;5037427;28;20198;-75
2023/05/08 05:40:33;;;;;;;7.05;6.35;;;;;;;8.71;69.10;102260.94;5053728;28;20202;-76
2023/05/08 05:43:03;;;;;;;7.28;6.25;;;;;;;8.75;69.44;102248.81;5039092;28;20415;-75
2023/05/08 05:45:33;;;;;;;6.97;5.90;;;;;;;8.85;68.92;102259.50;5058264;28;20212;-78
2023/05/08 05:48:04;;;;;;;6.28;5.68;;;;;;;8.85;69.12;102268.47;5034962;28;20191;-74
2023/05/08 05:50:34;;;;;;;7.25;5.93;;;;;;;8.89;68.92;102261.72;5035888;28;20209;-77
2023/05/08 05:53:03;;;;;;;6.03;5.38;;;;;;;8.95;68.98;102266.50;5063543;28;20250;-74
2023/05/08 05:55:33;;;;;;;6.45;5.07;;;;;;;8.84;68.49;102258.66;5044420;28;20603;-75
2023/05/08 05:58:04;;;;;;;5.43;4.38;;;;;;;8.87;68.71;102268.28;5035705;28;20206;-74
2023/05/08 06:00:34;;;;;;;6.15;5.60;;;;;;;8.97;68.77;102264.47;5057075;28;20202;-75
2023/05/08 06:03:04;;;;;;;6.70;6.05;;;;;;;9.06;67.86;102266.22;5039711;28;20573;-75
2023/05/08 06:05:33;;;;;;;6.88;5.15;;;;;;;9.25;67.65;102267.00;5047050;28;20232;-75
2023/05/08 06:08:02;;;;;;;6.63;5.35;;;;;;;9.31;67.27;102264.50;5057207;28;20712;-75
2023/05/08 06:10:31;;;;;;;5.55;5.05;;;;;;;9.45;66.73;102261.19;5060024;28;20225;-75
2023/05/08 06:13:01;;;;;;;6.30;5.40;;;;;;;9.62;66.19;102259.44;5044824;28;20186;-74
2023/05/08 06:15:32;;;;;;;12.82;5.03;;;;;;;9.65;64.36;102263.66;5039948;28;20211;-76
2023/05/08 06:18:01;;;;;;;5.88;4.70;;;;;;;9.77;64.00;102260.50;5046752;28;20216;-76
2023/05/08 06:20:30;;;;;;;6.85;4.57;;;;;;;9.86;64.00;102267.63;5048317;28;20199;-76
2023/05/08 06:22:59;;;;;;;5.50;4.55;;;;;;;9.86;63.36;102267.63;5059461;28;20206;-74
2023/05/08 06:25:28;;;;;;;5.63;3.85;;;;;;;9.90;62.76;102270.84;5064288;28;20229;-74
2023/05/08 06:27:57;;;;;;;6.03;5.40;;;;;;;10.01;62.49;102271.41;5065731;28;20197;-74
2023/05/08 06:30:26;;;;;;;4.73;3.90;;;;;;;10.22;61.46;102270.09;5064727;28;20663;-74
2023/05/08 06:32:56;;;;;;;6.55;4.45;;;;;;;10.20;61.41;102272.13;5064026;28;20445;-75
2023/05/08 06:35:25;;;;;;;4.90;4.38;;;;;;;10.22;60.00;102270.94;5039635;28;20306;-74
2023/05/08 06:37:54;;;;;;;4.50;4.10;;;;;;;10.20;59.92;102264.03;5041565;28;20190;-74
2023/05/08 06:40:23;;;;;;;5.00;3.90;;;;;;;10.37;60.13;102276.53;5050459;28;20199;-76
2023/05/08 06:42:53;;;;;;;8.20;5.17;;;;;;;10.65;59.63;102261.66;5046539;28;20214;-72
2023/05/08 06:45:22;;;;;;;4.43;4.00;;;;;;;10.72;58.57;102273.53;5031686;28;20458;-74
2023/05/08 06:47:51;;;;;;;5.60;4.30;;;;;;;10.71;58.21;102269.13;5044184;28;20661;-72
2023/05/08 06:50:21;;;;;;;5.30;3.57;;;;;;;10.83;58.10;102261.50;5048370;28;20437;-72
2023/05/08 06:52:59;;;;;;;6.27;3.60;;;;;;;11.02;57.19;102271.13;5046821;28;20521;-73
2023/05/08 06:55:29;;;;;;;4.97;3.80;;;;;;;10.89;55.84;102271.66;5029210;28;20472;-71
2023/05/08 06:58:01;;;;;;;4.73;3.27;;;;;;;11.09;56.24;102272.13;5053583;28;20539;-73
2023/05/08 07:00:31;;;;;;;5.10;3.80;;;;;;;11.41;54.67;102277.47;5037190;28;20543;-73
2023/05/08 07:03:03;;;;;;;3.60;3.27;;;;;;;11.40;54.37;102273.06;5030882;28;20788;-72
2023/05/08 07:05:35;;;;;;;7.33;3.60;;;;;;;11.58;54.13;102276.38;5034067;28;20476;-74
2023/05/08 07:08:07;;;;;;;5.50;3.80;;;;;;;11.86;53.77;102270.56;5050946;28;20397;-72
2023/05/08 07:10:41;;;;;;;3.80;2.70;;;;;;;11.72;53.38;102270.25;5052506;28;20397;-73
2023/05/08 07:13:12;;;;;;;10.40;4.13;;;;;;;11.77;53.82;102270.56;5046776;28;20405;-72
2023/05/08 07:15:44;;;;;;;6.40;4.00;;;;;;;12.08;52.17;102280.59;5037523;28;20434;-71
2023/05/08 07:18:15;;;;;;;4.20;3.50;;;;;;;12.00;50.82;102265.22;5047843;28;20544;-70
2023/05/08 07:20:47;;;;;;;6.40;3.80;;;;;;;12.04;50.98;102266.56;5052681;28;20443;-70
2023/05/08 07:23:18;;;;;;;4.40;3.33;;;;;;;11.91;50.35;102273.59;5034418;28;20420;-71
2023/05/08 07:25:50;;;;;;;5.10;3.80;;;;;;;11.90;50.56;102277.31;5029028;28;20412;-71
2023/05/08 07:28:21;;;;;;;4.27;3.60;;;;;;;12.08;50.60;102272.47;5036417;28;20408;-70
2023/05/08 07:30:52;;;;;;;4.60;3.57;;;;;;;12.33;50.28;102276.72;5028617;28;20443;-73
2023/05/08 07:33:22;;;;;;;4.43;3.90;;;;;;;12.31;49.46;102272.47;5050351;28;20397;-74
2023/05/08 07:35:55;;;;;;;4.80;3.60;;;;;;;12.15;49.65;102263.41;5036166;28;20445;-73
2023/05/08 07:38:26;;;;;;;4.57;3.43;;;;;;;12.18;48.75;102270.38;5036667;28;20447;-73
2023/05/08 07:40:58;;;;;;;4.50;3.43;;;;;;;12.25;48.95;102275.94;5031739;28;20440;-74
2023/05/08 07:43:30;;;;;;;8.33;4.40;;;;;;;12.45;48.50;102271.69;5038881;28;20471;-71
2023/05/08 07:46:01;;;;;;;4.87;4.37;;;;;;;12.48;47.44;102277.63;5050825;28;20555;-72
2023/05/08 07:48:32;;;;;;;3.97;3.53;;;;;;;12.62;47.47;102279.56;5032223;28;20439;-73
2023/05/08 07:51:07;;;;;;;3.87;3.37;;;;;;;12.56;47.33;102277.56;5035068;28;20414;-71
2023/05/08 07:53:39;;;;;;;6.43;3.20;;;;;;;12.58;47.31;102278.22;5039322;28;20441;-70
2023/05/08 07:56:11;;;;;;;5.30;3.40;;;;;;;12.71;46.55;102283.03;5047786;28;20884;-71
2023/05/08 07:58:44;;;;;;;5.20;4.03;;;;;;;12.77;46.19;102268.72;5052885;28;20445;-71
2023/05/08 08:01:16;;;;;;;4.30;3.87;;;;;;;12.89;46.47;102263.69;5030163;28;20430;-71
2023/05/08 08:03:50;;;;;;;4.37;3.20;;;;;;;13.11;46.30;102262.84;5027874;28;20536;-71
2023/05/08 08:06:24;;;;;;;7.43;5.10;;;;;;;13.52;45.97;102254.19;5026197;28;20517;-71
2023/05/08 08:08:56;;;;;;;4.03;3.23;;;;;;;13.53;44.56;102277.66;5029856;28;20442;-72
2023/05/08 08:11:28;;;;;;;7.17;4.47;;;;;;;13.14;44.70;102262.44;5027088;28;20438;-72
2023/05/08 08:14:00;;;;;;;8.97;6.10;;;;;;;13.18;44.81;102263.75;5056924;28;20473;-72
2023/05/08 08:16:30;;;;;;;7.20;5.43;;;;;;;13.14;45.17;102248.84;5039415;28;20426;-69
2023/05/08 08:19:02;;;;;;;6.20;4.30;;;;;;;13.26;44.32;102252.81;5033671;28;20406;-72
2023/05/08 08:21:35;;;;;;;3.93;3.53;;;;;;;13.41;43.66;102256.34;5035528;28;20454;-71
2023/05/08 08:24:06;;;;;;;6.40;3.77;;;;;;;13.61;43.88;102261.22;5029288;28;20450;-70
2023/05/08 08:26:37;;;;;;;15.90;3.90;;;;;;;13.57;42.77;102240.88;5031522;28;20444;-71
2023/05/08 08:29:10;;;;;;;6.40;3.10;;;;;;;13.40;42.32;102257.41;5032767;28;20435;-72
2023/05/08 08:31:41;;;;;;;5.57;3.13;;;;;;;13.62;42.61;102243.88;5048765;28;20500;-70
2023/05/08 08:34:12;;;;;;;3.27;2.97;;;;;;;13.72;42.22;102255.31;5036474;28;20528;-71
2023/05/08 08:36:44;;;;;;;3.70;3.03;;;;;;;13.77;42.12;102250.13;5031477;28;20471;-72
2023/05/08 08:39:14;;;;;;;15.03;3.60;;;;;;;14.05;41.21;102251.09;5027172;28;20455;-71
2023/05/08 08:41:49;;;;;;;7.60;3.40;;;;;;;14.18;40.81;102251.25;5031232;28;20432;-71
2023/05/08 08:44:21;;;;;;;5.63;3.10;;;;;;;14.42;41.45;102247.34;5034633;28;20511;-72
2023/05/08 08:46:52;;;;;;;5.70;3.33;;;;;;;14.46;40.07;102243.19;5034642;28;20475;-72
2023/05/08 08:49:30;;;;;;;5.33;3.67;;;;;;;14.45;40.97;102237.94;5045881;28;20410;-70
2023/05/08 08:52:08;;;;;;;5.07;3.03;;;;;;;14.58;40.63;102246.22;5029611;28;20422;-72
2023/05/08 08:54:40;;;;;;;6.23;3.27;;;;;;;14.87;39.82;102242.47;5029301;28;20434;-72
2023/05/08 08:57:12;;;;;;;4.10;3.70;;;;;;;14.87;39.34;102231.56;5050834;28;20424;-72
2023/05/08 08:59:44;;;;;;;3.67;2.60;;;;;;;14.50;39.88;102243.63;5052675;28;20516;-69
2023/05/08 09:02:16;;;;;;;3.13;2.83;;;;;;;14.56;39.37;102237.41;5027331;28;20435;-71
2023/05/08 09:04:50;;;;;;;4.07;3.23;;;;;;;14.68;38.25;102241.28;5051095;28;20492;-73
2023/05/08 09:07:23;;;;;;;4.47;2.50;;;;;;;15.02;38.02;102244.06;5028397;28;20444;-70
2023/05/08 09:09:53;;;;;;;4.57;2.77;;;;;;;15.16;37.56;102245.84;5029235;28;20430;-71
2023/05/08 09:12:27;;;;;;;3.93;3.10;;;;;;;15.32;36.76;102244.69;5030743;28;20452;-72
2023/05/08 09:14:57;;;;;;;4.37;2.80;;;;;;;15.28;36.81;102246.13;5035651;28;20468;-70
2023/05/08 09:17:27;;;;;;;3.20;2.90;;;;;;;15.12;36.77;102233.66;5030712;28;20918;-70
2023/05/08 09:19:57;;;;;;;6.40;4.07;;;;;;;15.16;36.43;102237.66;5026481;28;20442;-70
2023/05/08 09:22:30;;;;;;;4.53;2.97;;;;;;;14.81;36.59;102249.59;5030988;28;20411;-70
2023/05/08 09:25:02;;;;;;;4.10;2.40;;;;;;;14.77;36.67;102234.66;5031043;28;20860;-72
2023/05/08 09:27:33;;;;;;;2.80;2.20;;;;;;;15.06;36.75;102229.00;5052041;28;20951;-72
2023/05/08 09:30:04;;;;;;;9.90;3.30;;;;;;;15.16;36.95;102229.47;5034198;28;20930;-72
2023/05/08 09:32:35;;;;;;;3.30;2.30;;;;;;;15.17;36.56;102231.19;5028815;28;20858;-71
2023/05/08 09:35:07;;;;;;;3.40;2.87;;;;;;;15.39;36.18;102237.41;5051760;28;20774;-73
2023/05/08 09:37:42;;;;;;;5.23;3.20;;;;;;;15.28;36.46;102232.50;5028059;28;20833;-71
2023/05/08 09:40:18;;;;;;;8.07;2.93;;;;;;;15.55;37.01;102225.31;5032459;28;20874;-71
2023/05/08 09:42:49;;;;;;;3.83;2.53;;;;;;;15.82;36.23;102231.75;5030774;28;20580;-71
2023/05/08 09:45:30;;;;;;;3.27;2.83;;;;;;;16.02;36.46;102228.00;5024683;28;20795;-70
2023/05/08 09:48:01;;;;;;;5.97;3.33;;;;;;;15.69;35.71;102229.78;5048102;28;20517;-74
2023/05/08 09:50:32;;;;;;;3.93;3.13;;;;;;;15.80;36.51;102236.56;5028900;28;20419;-72
2023/05/08 09:53:04;;;;;;;3.10;2.40;;;;;;;15.63;36.19;102226.00;5016461;28;20461;-70
2023/05/08 09:55:48;;;;;;;4.37;3.13;;;;;;;15.63;35.79;102231.47;5049125;28;20460;-72
2023/05/08 09:58:18;;;;;;;10.37;3.03;;;;;;;15.47;36.17;102228.19;5040704;28;20530;-71
2023/05/08 10:00:49;;;;;;;3.60;2.77;;;;;;;15.59;36.06;102229.31;5024162;28;20750;-70
2023/05/08 10:03:19;;;;;;;3.40;2.13;;;;;;;15.79;35.79;102232.13;5045171;28;20807;-73
2023/05/08 10:05:49;;;;;;;3.33;2.57;;;;;;;15.71;36.22;102216.78;5023926;28;20447;-72
2023/05/08 10:08:24;;;;;;;2.33;2.03;;;;;;;15.70;36.88;102223.28;5030182;28;20451;-70
2023/05/08 10:10:53;;;;;;;3.37;2.50;;;;;;;16.01;37.13;102211.84;5032434;28;20785;-71
2023/05/08 10:13:24;;;;;;;3.80;2.70;;;;;;;16.28;36.44;102212.75;5042455;28;20415;-72
2023/05/08 10:15:57;;;;;;;3.30;2.80;;;;;;;16.48;35.93;102213.59;5030150;28;20855;-69
2023/05/08 10:18:36;;;;;;;3.10;2.80;;;;;;;16.63;36.24;102206.06;5050018;28;20460;-70
2023/05/08 10:21:08;;;;;;;3.73;3.30;;;;;;;17.00;35.26;102225.59;5048097;28;20423;-71
2023/05/08 10:23:42;;;;;;;2.30;2.03;;;;;;;16.45;35.36;102214.03;5030883;28;21428;-71
2023/05/08 10:26:16;;;;;;;4.00;2.97;;;;;;;16.36;34.98;102204.38;5023505;28;20888;-71
2023/05/08 10:28:56;;;;;;;2.87;2.57;;;;;;;16.54;35.37;102210.03;5029291;28;20468;-72
2023/05/08 10:31:28;;;;;;;3.60;2.73;;;;;;;16.70;35.24;102206.91;5027911;28;20520;-71
2023/05/08 10:33:59;;;;;;;3.73;2.80;;;;;;;16.96;34.47;102208.78;5030467;28;20474;-72
2023/05/08 10:36:30;;;;;;;2.43;2.23;;;;;;;17.30;34.39;102197.56;5029566;28;20817;-72
2023/05/08 10:39:02;;;;;;;3.40;2.60;;;;;;;17.27;33.87;102206.19;5034770;28;20453;-72
2023/05/08 10:41:32;;;;;;;3.77;2.60;;;;;;;17.10;33.38;102190.44;5046672;28;20412;-73
2023/05/08 10:44:03;;;;;;;5.00;3.07;;;;;;;17.25;33.66;102191.88;5053330;28;20472;-72
2023/05/08 10:46:41;;;;;;;2.83;2.40;;;;;;;17.51;32.70;102187.38;5045695;28;20444;-71
2023/05/08 10:49:20;;;;;;;3.40;2.37;;;;;;;17.57;32.40;102181.88;5044681;28;20518;-71
2023/05/08 10:52:01;;;;;;;3.97;2.40;;;;;;;17.39;32.62;102181.72;5035270;28;20449;-71
2023/05/08 10:54:42;;;;;;;3.90;3.50;;;;;;;17.64;31.94;102168.19;5050823;28;20954;-73
2023/05/08 10:57:13;;;;;;;4.37;2.77;;;;;;;17.97;31.81;102176.22;5032519;28;20783;-72
2023/05/08 10:59:46;;;;;;;3.67;2.67;;;;;;;17.70;30.98;102170.91;5030874;28;20457;-70
2023/05/08 11:02:16;;;;;;;4.83;2.70;;;;;;;17.43;30.89;102180.25;5029582;28;20879;-71
2023/05/08 11:04:47;;;;;;;4.30;2.40;;;;;;;17.63;31.36;102181.03;5049694;28;20516;-74
2023/05/08 11:07:17;;;;;;;4.80;2.30;;;;;;;17.46;31.51;102168.88;5028324;28;20478;-72
2023/05/08 11:09:48;;;;;;;3.03;2.50;;;;;;;17.30;31.88;102172.09;5033097;28;20435;-71
2023/05/08 11:12:24;;;;;;;3.27;2.40;;;;;;;17.16;31.29;102173.19;5047850;28;20636;-71
2023/05/08 11:15:02;;;;;;;4.90;2.90;;;;;;;17.30;31.85;102177.56;5027814;28;20459;-74
2023/05/08 11:17:32;;;;;;;2.30;2.00;;;;;;;17.55;31.13;102164.00;5044790;28;20479;-73
2023/05/08 11:20:03;;;;;;;8.03;2.70;;;;;;;17.64;31.24;102169.03;5044489;28;20435;-71
2023/05/08 11:22:33;;;;;;;2.50;2.30;;;;;;;17.79;30.80;102166.84;5045778;28;20442;-72
2023/05/08 11:25:07;;;;;;;4.10;3.70;;;;;;;18.05;31.37;102168.59;5026755;28;20473;-71
2023/05/08 11:27:56;;;;;;;3.90;2.47;;;;;;;17.92;31.18;102159.59;5031150;28;20444;-72
2023/05/08 11:30:37;;;;;;;3.33;2.20;;;;;;;18.20;31.57;102174.56;5045297;28;20470;-70
2023/05/08 11:33:15;;;;;;;2.90;2.60;;;;;;;17.91;31.62;102160.69;5043361;28;20452;-70
2023/05/08 11:35:50;;;;;;;4.10;2.70;;;;;;;17.91;31.89;102164.22;5026945;28;20413;-71
2023/05/08 11:38:23;;;;;;;2.10;1.90;;;;;;;17.66;32.48;102153.25;5032864;28;20447;-70
2023/05/08 11:41:00;;;;;;;3.80;3.20;;;;;;;17.83;32.35;102155.44;5051783;28;20543;-71
2023/05/08 11:44:12;;;;;;;4.03;2.53;;;;;;;17.74;32.11;102161.19;5027454;28;20985;-71
2023/05/08 11:46:52;;;;;;;4.53;2.50;;;;;;;17.96;31.77;102149.91;5050214;28;20451;-69
2023/05/08 11:49:24;;;;;;;5.93;2.97;;;;;;;18.05;32.01;102151.31;5049124;28;20646;-73
2023/05/08 11:52:00;;;;;;;3.07;2.77;;;;;;;18.25;31.89;102141.88;5031183;28;20442;-70